createdAt,value
2018-12-01T00:00:30.460Z,51.43
2018-12-01T00:03:00.046Z,48.63
2018-12-01T00:05:28.471Z,45.03
2018-12-01T00:07:57.230Z,47.00
2018-12-01T00:10:25.673Z,44.87
2018-12-01T00:12:54.077Z,46.90
2018-12-01T00:15:24.714Z,48.27
2018-12-01T00:17:53.464Z,49.97
2018-12-01T00:20:23.431Z,44.53
2018-12-01T00:22:51.879Z,45.33
2018-12-01T00:25:20.364Z,48.33
2018-12-01T00:27:48.938Z,47.43
2018-12-01T00:30:18.486Z,46.00
2018-12-01T00:32:48.090Z,50.40
2018-12-01T00:35:16.757Z,50.10
2018-12-01T00:37:45.204Z,44.77
2018-12-01T00:40:16.644Z,51.63
2018-12-01T00:42:45.302Z,50.20
2018-12-01T00:45:15.662Z,48.80
2018-12-01T00:47:45.316Z,43.90
2018-12-01T00:50:16.622Z,49.73
2018-12-01T00:52:45.578Z,46.90
2018-12-01T00:55:15.911Z,50.17
2018-12-01T00:57:44.486Z,46.40
2018-12-01T01:00:16.196Z,47.15
2018-12-01T01:02:50.163Z,48.20
2018-12-01T01:05:18.639Z,45.30
2018-12-01T01:07:47.172Z,48.57
2018-12-01T01:10:15.619Z,49.53
2018-12-01T01:12:44.187Z,52.13
2018-12-01T01:15:13.541Z,49.63
2018-12-01T01:17:42.082Z,47.90
2018-12-01T01:20:11.693Z,48.87
2018-12-01T01:22:40.818Z,50.97
2018-12-01T01:25:10.378Z,48.13
2018-12-01T01:27:38.850Z,45.60
2018-12-01T01:30:17.554Z,45.37
2018-12-01T01:32:46.066Z,52.10
2018-12-01T01:35:14.687Z,49.57
2018-12-01T01:37:43.159Z,47.53
2018-12-01T01:40:15.486Z,47.00
2018-12-01T01:42:44.019Z,45.87
2018-12-01T01:45:17.553Z,44.90
2018-12-01T01:47:46.203Z,45.47
2018-12-01T01:50:17.714Z,50.07
2018-12-01T01:52:46.274Z,44.43
2018-12-01T01:55:14.935Z,42.73
2018-12-01T01:57:43.397Z,43.57
2018-12-01T02:00:17.917Z,47.33
2018-12-01T02:02:48.497Z,45.93
2018-12-01T02:05:17.788Z,47.07
2018-12-01T02:07:46.218Z,43.07
2018-12-01T02:10:15.735Z,47.37
2018-12-01T02:12:44.182Z,44.47
2018-12-01T02:15:13.357Z,44.47
2018-12-01T02:17:41.947Z,43.30
2018-12-01T02:20:13.481Z,47.00
2018-12-01T02:22:41.946Z,44.67
2018-12-01T02:25:14.507Z,41.80
2018-12-01T02:27:43.040Z,43.53
2018-12-01T02:30:13.512Z,47.77
2018-12-01T02:32:42.013Z,46.10
2018-12-01T02:35:11.778Z,47.73
2018-12-01T02:37:40.290Z,47.50
2018-12-01T02:40:10.028Z,45.90
2018-12-01T02:42:38.626Z,43.03
2018-12-01T02:46:17.128Z,42.67
2018-12-01T02:48:45.554Z,44.17
2018-12-01T02:51:13.994Z,46.57
2018-12-01T02:53:42.497Z,47.37
2018-12-01T02:56:11.080Z,50.97
2018-12-01T02:58:39.670Z,44.57
2018-12-01T03:01:08.153Z,48.97
2018-12-01T03:03:36.589Z,49.13
2018-12-01T03:06:05.333Z,43.83
2018-12-01T03:08:33.777Z,49.77
2018-12-01T03:11:02.229Z,55.60
2018-12-01T03:13:30.788Z,52.00
2018-12-01T03:15:59.274Z,51.63
2018-12-01T03:18:27.753Z,52.47
2018-12-01T03:20:56.262Z,52.10
2018-12-01T03:23:24.722Z,54.93
2018-12-01T03:25:56.078Z,56.53
2018-12-01T03:28:24.666Z,55.17
2018-12-01T03:30:53.151Z,57.27
2018-12-01T03:33:21.618Z,53.40
2018-12-01T03:35:50.084Z,63.33
2018-12-01T03:38:18.702Z,58.93
2018-12-01T03:40:48.119Z,59.87
2018-12-01T03:43:16.884Z,58.93
2018-12-01T03:45:45.945Z,63.97
2018-12-01T03:48:14.377Z,67.00
2018-12-01T03:50:42.853Z,65.17
2018-12-01T03:53:12.572Z,77.10
2018-12-01T03:55:41.168Z,64.90
2018-12-01T03:58:09.758Z,66.70
2018-12-01T04:00:38.241Z,72.57
2018-12-01T04:03:07.310Z,88.47
2018-12-01T04:05:35.928Z,86.87
2018-12-01T04:08:04.401Z,78.57
2018-12-01T04:10:33.509Z,82.40
2018-12-01T04:13:02.100Z,74.20
2018-12-01T04:15:30.638Z,77.10
2018-12-01T04:17:59.166Z,74.70
2018-12-01T04:20:28.271Z,78.67
2018-12-01T04:22:56.684Z,74.70
2018-12-01T04:25:25.338Z,79.73
2018-12-01T04:27:53.830Z,76.47
2018-12-01T04:30:24.072Z,84.60
2018-12-01T04:32:52.635Z,79.93
2018-12-01T04:35:22.089Z,84.40
2018-12-01T04:37:51.562Z,79.53
2018-12-01T04:40:20.153Z,75.37
2018-12-01T04:42:49.222Z,77.80
2018-12-01T04:45:18.316Z,80.43
2018-12-01T04:47:46.973Z,89.37
2018-12-01T04:50:16.350Z,80.67
2018-12-01T04:52:45.563Z,88.73
2018-12-01T04:55:16.055Z,79.70
2018-12-01T04:57:44.546Z,82.27
2018-12-01T05:00:15.159Z,82.60
2018-12-01T05:02:43.680Z,87.47
2018-12-01T05:05:13.604Z,88.53
2018-12-01T05:07:42.169Z,92.23
2018-12-01T05:10:12.771Z,78.73
2018-12-01T05:12:41.220Z,84.27
2018-12-01T05:15:14.535Z,92.83
2018-12-01T05:17:43.138Z,83.20
2018-12-01T05:20:13.509Z,81.30
2018-12-01T05:22:42.085Z,76.30
2018-12-01T05:25:11.392Z,84.83
2018-12-01T05:27:39.803Z,78.60
2018-12-01T05:30:08.840Z,73.97
2018-12-01T05:32:38.143Z,66.63
2018-12-01T05:35:11.533Z,68.60
2018-12-01T05:37:40.047Z,65.00
2018-12-01T05:40:10.171Z,70.67
2018-12-01T05:42:38.867Z,66.53
2018-12-01T05:45:10.617Z,62.87
2018-12-01T05:47:39.112Z,68.17
2018-12-01T05:50:08.661Z,65.13
2018-12-01T05:52:37.512Z,55.80
2018-12-01T05:55:08.215Z,53.17
2018-12-01T05:57:36.667Z,57.83
2018-12-01T06:00:10.562Z,45.80
2018-12-01T06:02:39.029Z,49.13
2018-12-01T06:05:08.239Z,48.07
2018-12-01T06:07:36.817Z,44.60
2018-12-01T06:10:10.373Z,46.97
2018-12-01T06:12:39.002Z,48.23
2018-12-01T06:15:09.515Z,48.27
2018-12-01T06:17:38.022Z,44.70
2018-12-01T06:20:08.563Z,45.47
2018-12-01T06:22:37.040Z,51.63
2018-12-01T06:25:07.307Z,41.07
2018-12-01T06:27:35.954Z,40.73
2018-12-01T06:30:06.668Z,38.90
2018-12-01T06:32:35.130Z,44.20
2018-12-01T06:35:03.975Z,44.43
2018-12-01T06:37:32.428Z,53.07
2018-12-01T06:40:01.021Z,43.80
2018-12-01T06:42:29.649Z,42.23
2018-12-01T06:44:58.210Z,37.77
2018-12-01T06:47:26.709Z,44.37
2018-12-01T06:49:55.800Z,45.50
2018-12-01T06:52:24.334Z,39.07
2018-12-01T06:54:52.871Z,45.60
2018-12-01T06:57:21.352Z,40.47
2018-12-01T06:59:49.958Z,41.93
2018-12-01T07:02:18.461Z,40.63
2018-12-01T07:04:46.937Z,42.87
2018-12-01T07:07:15.401Z,37.57
2018-12-01T07:09:44.116Z,45.10
2018-12-01T07:12:12.560Z,44.03
2018-12-01T07:14:41.023Z,41.43
2018-12-01T07:17:09.667Z,38.70
2018-12-01T07:19:38.332Z,38.07
2018-12-01T07:22:06.919Z,38.80
2018-12-01T07:24:35.711Z,36.57
2018-12-01T07:27:04.237Z,40.03
2018-12-01T07:29:32.678Z,42.10
2018-12-01T07:32:01.111Z,45.70
2018-12-01T07:34:29.718Z,37.97
2018-12-01T07:36:58.241Z,38.47
2018-12-01T07:39:26.721Z,38.33
2018-12-01T07:41:55.129Z,41.43
2018-12-01T07:44:23.570Z,41.67
2018-12-01T07:46:52.127Z,38.37
2018-12-01T07:49:20.653Z,35.93
2018-12-01T07:51:49.297Z,35.23
2018-12-01T07:54:17.835Z,38.40
2018-12-01T07:56:46.422Z,37.37
2018-12-01T07:59:15.009Z,34.87
2018-12-01T08:01:43.437Z,32.20
2018-12-01T08:04:11.880Z,35.93
2018-12-01T08:06:40.464Z,30.13
2018-12-01T08:09:08.988Z,27.93
2018-12-01T08:11:37.522Z,34.73
2018-12-01T08:14:06.036Z,30.43
2018-12-01T08:16:34.476Z,35.03
2018-12-01T08:19:03.109Z,37.17
2018-12-01T08:21:31.559Z,32.07
2018-12-01T08:24:00.166Z,29.87
2018-12-01T08:26:28.649Z,28.60
2018-12-01T08:28:57.201Z,26.33
2018-12-01T08:31:25.649Z,24.57
2018-12-01T08:33:54.122Z,24.43
2018-12-01T08:36:22.549Z,28.23
2018-12-01T08:38:51.010Z,22.27
2018-12-01T08:41:19.442Z,21.67
2018-12-01T08:43:47.905Z,26.83
2018-12-01T08:46:16.350Z,24.73
2018-12-01T08:48:44.813Z,24.80
2018-12-01T08:51:13.402Z,22.70
2018-12-01T08:53:41.880Z,25.53
2018-12-01T08:56:10.832Z,23.43
2018-12-01T08:58:39.412Z,26.73
2018-12-01T09:01:08.381Z,22.97
2018-12-01T09:03:36.892Z,23.90
2018-12-01T09:06:05.397Z,26.53
2018-12-01T09:08:33.991Z,21.57
2018-12-01T09:11:02.436Z,20.23
2018-12-01T09:13:30.873Z,23.67
2018-12-01T09:15:59.306Z,21.00
2018-12-01T09:18:27.761Z,24.63
2018-12-01T09:20:56.238Z,25.90
2018-12-01T09:23:24.826Z,23.13
2018-12-01T09:25:54.438Z,21.57
2018-12-01T09:28:22.929Z,27.17
2018-12-01T09:30:51.364Z,18.57
2018-12-01T09:33:19.820Z,20.57
2018-12-01T09:35:48.377Z,26.83
2018-12-01T09:38:16.871Z,20.27
2018-12-01T09:40:45.371Z,21.23
2018-12-01T09:43:13.937Z,18.50
2018-12-01T09:45:42.428Z,20.10
2018-12-01T09:48:10.905Z,16.33
2018-12-01T09:50:39.383Z,24.73
2018-12-01T09:53:08.600Z,18.67
2018-12-01T09:55:37.082Z,15.83
2018-12-01T09:58:06.810Z,21.93
2018-12-01T10:00:35.375Z,19.90
2018-12-01T10:03:06.643Z,20.30
2018-12-01T10:05:35.331Z,23.87
2018-12-01T10:08:03.903Z,23.53
2018-12-01T10:10:32.489Z,19.90
2018-12-01T10:13:00.976Z,17.83
2018-12-01T10:15:30.974Z,20.27
2018-12-01T10:17:59.488Z,16.47
2018-12-01T10:20:32.299Z,19.17
2018-12-01T10:23:01.674Z,14.50
2018-12-01T10:25:30.182Z,14.27
2018-12-01T10:27:58.611Z,14.40
2018-12-01T10:30:27.191Z,14.70
2018-12-01T10:32:55.831Z,14.57
2018-12-01T10:35:25.407Z,15.40
2018-12-01T10:38:00.117Z,16.30
2018-12-01T10:40:28.637Z,15.97
2018-12-01T10:42:57.225Z,15.90
2018-12-01T10:45:25.726Z,15.67
2018-12-01T10:47:54.145Z,13.00
2018-12-01T10:50:23.594Z,10.97
2018-12-01T10:52:54.121Z,13.47
2018-12-01T10:55:33.572Z,15.67
2018-12-01T10:58:04.820Z,13.17
2018-12-01T11:00:38.717Z,18.67
2018-12-01T11:03:13.203Z,15.90
2018-12-01T11:05:41.925Z,12.60
2018-12-01T11:08:12.135Z,17.13
2018-12-01T11:10:40.980Z,12.90
2018-12-01T11:13:09.536Z,13.17
2018-12-01T11:15:38.104Z,14.10
2018-12-01T11:18:06.574Z,16.80
2018-12-01T11:20:35.090Z,11.73
2018-12-01T11:23:03.916Z,14.10
2018-12-01T11:25:32.617Z,17.70
2018-12-01T11:28:01.262Z,13.03
2018-12-01T11:30:29.847Z,14.53
2018-12-01T11:32:58.445Z,14.07
2018-12-01T11:35:27.023Z,9.90
2018-12-01T11:37:55.587Z,14.87
2018-12-01T11:40:24.057Z,10.93
2018-12-01T11:42:52.567Z,12.80
2018-12-01T11:45:21.164Z,14.20
2018-12-01T11:47:49.854Z,13.90
2018-12-01T11:50:19.210Z,13.27
2018-12-01T11:52:50.175Z,27.30
2018-12-01T11:55:20.873Z,22.90
2018-12-01T11:57:49.392Z,12.97
2018-12-01T12:00:18.914Z,13.70
2018-12-01T12:02:47.452Z,13.90
2018-12-01T12:05:16.601Z,15.70
2018-12-01T12:07:56.397Z,14.10
2018-12-01T12:10:25.003Z,10.90
2018-12-01T12:12:53.639Z,11.87
2018-12-01T12:15:28.726Z,11.20
2018-12-01T12:18:02.080Z,13.17
2018-12-01T12:20:31.195Z,14.70
2018-12-01T12:22:59.757Z,15.63
2018-12-01T12:25:28.991Z,13.23
2018-12-01T12:27:57.560Z,9.77
2018-12-01T12:30:26.240Z,10.10
2018-12-01T12:32:54.812Z,12.30
2018-12-01T12:35:23.619Z,15.93
2018-12-01T12:37:52.122Z,13.77
2018-12-01T12:40:25.828Z,15.40
2018-12-01T12:42:56.358Z,21.60
2018-12-01T12:45:24.901Z,10.00
2018-12-01T12:47:53.454Z,10.63
2018-12-01T12:50:21.996Z,13.83
2018-12-01T12:52:53.744Z,15.83
2018-12-01T12:55:27.389Z,15.13
2018-12-01T12:57:55.963Z,10.10
2018-12-01T13:00:28.009Z,11.20
2018-12-01T13:03:05.634Z,12.60
2018-12-01T13:05:37.646Z,17.23
2018-12-01T13:08:07.044Z,13.57
2018-12-01T13:10:35.663Z,14.30
2018-12-01T13:13:04.237Z,16.43
2018-12-01T13:15:32.834Z,22.27
2018-12-01T13:18:01.288Z,16.37
2018-12-01T13:20:29.907Z,13.57
2018-12-01T13:22:59.624Z,11.10
2018-12-01T13:25:28.413Z,13.17
2018-12-01T13:28:00.396Z,10.73
2018-12-01T13:30:33.394Z,13.80
2018-12-01T13:33:01.994Z,12.90
2018-12-01T13:35:30.462Z,19.50
2018-12-01T13:37:59.022Z,17.10
2018-12-01T13:40:27.552Z,15.27
2018-12-01T13:42:56.185Z,11.03
2018-12-01T13:45:24.765Z,9.23
2018-12-01T13:47:53.300Z,13.10
2018-12-01T13:50:22.074Z,10.23
2018-12-01T13:52:52.172Z,15.47
2018-12-01T13:55:20.872Z,15.20
2018-12-01T13:57:49.393Z,15.40
2018-12-01T14:00:18.984Z,21.80
2018-12-01T14:02:47.560Z,39.50
2018-12-01T14:05:16.147Z,37.77
2018-12-01T14:07:44.596Z,18.60
2018-12-01T14:10:19.538Z,19.37
2018-12-01T14:12:49.405Z,20.90
2018-12-01T14:15:19.753Z,15.23
2018-12-01T14:17:48.632Z,12.73
2018-12-01T14:20:17.597Z,13.10
2018-12-01T14:22:47.100Z,11.50
2018-12-01T14:25:16.766Z,13.87
2018-12-01T14:27:58.924Z,9.03
2018-12-01T14:30:27.487Z,13.10
2018-12-01T14:32:56.084Z,11.13
2018-12-01T14:35:28.577Z,16.30
2018-12-01T14:37:58.699Z,10.93
2018-12-01T14:40:27.827Z,14.80
2018-12-01T14:42:56.940Z,13.93
2018-12-01T14:45:25.472Z,10.10
2018-12-01T14:47:53.956Z,13.03
2018-12-01T14:50:22.568Z,11.43
2018-12-01T14:52:51.331Z,10.30
2018-12-01T14:55:19.798Z,13.83
2018-12-01T14:57:48.300Z,12.77
2018-12-01T15:00:19.775Z,10.63
2018-12-01T15:02:49.692Z,17.87
2018-12-01T15:05:18.158Z,14.27
2018-12-01T15:07:47.316Z,13.00
2018-12-01T15:10:17.765Z,14.77
2018-12-01T15:12:47.703Z,8.40
2018-12-01T15:15:17.791Z,11.77
2018-12-01T15:17:52.277Z,11.90
2018-12-01T15:20:21.745Z,15.20
2018-12-01T15:22:53.191Z,13.33
2018-12-01T15:25:30.764Z,16.63
2018-12-01T15:27:59.244Z,10.60
2018-12-01T15:30:29.702Z,13.33
2018-12-01T15:33:16.942Z,14.13
2018-12-01T15:35:46.393Z,13.43
2018-12-01T15:38:15.227Z,15.90
2018-12-01T15:40:46.666Z,15.03
2018-12-01T15:43:15.140Z,13.50
2018-12-01T15:45:43.652Z,15.33
2018-12-01T15:48:12.099Z,23.40
2018-12-01T15:50:40.818Z,16.17
2018-12-01T15:53:12.382Z,11.80
2018-12-01T15:55:40.886Z,13.00
2018-12-01T15:58:09.578Z,14.03
2018-12-01T16:00:38.700Z,13.43
2018-12-01T16:03:07.564Z,12.90
2018-12-01T16:05:36.235Z,16.23
2018-12-01T16:08:04.751Z,12.80
2018-12-01T16:10:33.552Z,13.30
2018-12-01T16:13:33.286Z,16.10
2018-12-01T16:16:05.888Z,15.60
2018-12-01T16:18:34.435Z,10.53
2018-12-01T16:21:02.988Z,14.40
2018-12-01T16:23:31.528Z,9.97
2018-12-01T16:26:00.033Z,10.63
2018-12-01T16:28:28.618Z,11.77
2018-12-01T16:30:57.499Z,13.97
2018-12-01T16:33:25.895Z,14.37
2018-12-01T16:35:54.993Z,11.87
2018-12-01T16:38:28.493Z,14.90
2018-12-01T16:41:15.603Z,11.17
2018-12-01T16:43:44.225Z,14.43
2018-12-01T16:46:12.782Z,14.17
2018-12-01T16:48:41.379Z,15.33
2018-12-01T16:51:10.017Z,11.63
2018-12-01T16:53:38.449Z,14.60
2018-12-01T16:56:07.028Z,16.77
2018-12-01T16:58:35.713Z,11.67
2018-12-01T17:01:04.879Z,12.80
2018-12-01T17:03:33.426Z,15.77
2018-12-01T17:06:04.570Z,14.23
2018-12-01T17:08:32.995Z,11.23
2018-12-01T17:11:01.621Z,10.03
2018-12-01T17:13:30.136Z,11.90
2018-12-01T17:15:58.605Z,12.37
2018-12-01T17:18:27.278Z,13.83
2018-12-01T17:20:55.795Z,14.87
2018-12-01T17:23:24.455Z,14.30
2018-12-01T17:25:53.041Z,14.10
2018-12-01T17:28:21.511Z,15.70
2018-12-01T17:30:51.349Z,13.03
2018-12-01T17:33:19.927Z,14.90
2018-12-01T17:35:48.497Z,12.67
2018-12-01T17:38:19.479Z,9.77
2018-12-01T17:41:01.218Z,12.60
2018-12-01T17:43:46.101Z,13.67
2018-12-01T17:46:14.691Z,13.60
2018-12-01T17:48:43.212Z,50.07
2018-12-01T17:51:11.866Z,22.57
2018-12-01T17:53:40.915Z,14.30
2018-12-01T17:56:09.762Z,11.50
2018-12-01T17:58:38.254Z,13.67
2018-12-01T18:01:07.320Z,9.57
2018-12-01T18:03:35.824Z,11.27
2018-12-01T18:06:07.661Z,9.13
2018-12-01T18:08:36.157Z,20.23
2018-12-01T18:11:04.755Z,39.37
2018-12-01T18:13:33.237Z,32.90
2018-12-01T18:16:01.688Z,113.27
2018-12-01T18:18:30.222Z,39.13
2018-12-01T18:20:58.713Z,58.37
2018-12-01T18:23:27.916Z,35.03
2018-12-01T18:25:57.003Z,26.17
2018-12-01T18:28:37.045Z,31.50
2018-12-01T18:31:08.509Z,32.23
2018-12-01T18:33:38.824Z,42.63
2018-12-01T18:36:08.947Z,18.00
2018-12-01T18:38:37.519Z,15.07
2018-12-01T18:41:07.348Z,24.03
2018-12-01T18:43:35.885Z,44.03
2018-12-01T18:46:07.338Z,34.70
2018-12-01T18:48:35.983Z,14.67
2018-12-01T18:51:04.695Z,18.17
2018-12-01T18:53:33.355Z,20.67
2018-12-01T18:56:02.061Z,13.97
2018-12-01T18:58:30.532Z,13.33
2018-12-01T19:00:59.100Z,14.30
2018-12-01T19:03:32.437Z,9.13
2018-12-01T19:06:00.998Z,14.00
2018-12-01T19:08:29.688Z,11.63
2018-12-01T19:10:58.171Z,16.17
2018-12-01T19:13:26.733Z,11.20
2018-12-01T19:15:55.821Z,9.87
2018-12-01T19:18:24.284Z,11.57
2018-12-01T19:20:52.863Z,9.07
2018-12-01T19:23:21.420Z,8.33
2018-12-01T19:25:51.324Z,9.73
2018-12-01T19:28:19.821Z,14.60
2018-12-01T19:30:48.339Z,11.33
2018-12-01T19:33:18.866Z,15.70
2018-12-01T19:35:48.260Z,12.20
2018-12-01T19:38:19.488Z,14.80
2018-12-01T19:40:48.171Z,15.23
2018-12-01T19:43:16.658Z,15.03
2018-12-01T19:45:45.151Z,14.73
2018-12-01T19:48:13.617Z,12.10
2018-12-01T19:50:42.380Z,11.10
2018-12-01T19:53:13.373Z,12.97
2018-12-01T19:55:42.417Z,13.97
2018-12-01T19:58:15.577Z,9.20
2018-12-01T20:00:46.152Z,16.17
2018-12-01T20:03:16.414Z,10.23
2018-12-01T20:05:44.910Z,9.13
2018-12-01T20:08:14.690Z,11.83
2018-12-01T20:10:46.214Z,10.67
2018-12-01T20:13:18.235Z,14.60
2018-12-01T20:15:49.275Z,11.27
2018-12-01T20:18:20.233Z,13.53
2018-12-01T20:20:48.701Z,12.40
2018-12-01T20:23:17.276Z,16.80
2018-12-01T20:25:47.491Z,14.93
2018-12-01T20:28:16.128Z,11.63
2018-12-01T20:30:44.772Z,14.03
2018-12-01T20:33:14.101Z,13.00
2018-12-01T20:35:45.444Z,18.07
2018-12-01T20:38:18.871Z,14.37
2018-12-01T20:40:47.544Z,14.87
2018-12-01T20:43:16.044Z,11.50
2018-12-01T20:45:44.503Z,16.17
2018-12-01T20:48:13.635Z,12.13
2018-12-01T20:50:42.101Z,12.30
2018-12-01T20:53:10.780Z,14.87
2018-12-01T20:55:41.156Z,13.13
2018-12-01T20:58:09.593Z,27.47
2018-12-01T21:00:38.685Z,12.93
2018-12-01T21:03:07.178Z,14.77
2018-12-01T21:05:35.656Z,16.83
2018-12-01T21:08:04.207Z,15.53
2018-12-01T21:10:34.908Z,12.60
2018-12-01T21:13:03.582Z,17.10
2018-12-01T21:15:32.194Z,15.47
2018-12-01T21:18:00.673Z,15.83
2018-12-01T21:20:29.312Z,12.37
2018-12-01T21:22:57.760Z,13.70
2018-12-01T21:25:27.389Z,14.27
2018-12-01T21:27:58.437Z,13.70
2018-12-01T21:30:27.828Z,12.13
2018-12-01T21:32:59.129Z,16.20
2018-12-01T21:35:27.577Z,19.60
2018-12-01T21:37:56.121Z,12.90
2018-12-01T21:40:25.169Z,14.33
2018-12-01T21:42:53.675Z,12.93
2018-12-01T21:45:22.098Z,12.73
2018-12-01T21:47:50.645Z,14.53
2018-12-01T21:50:20.525Z,10.50
2018-12-01T21:52:54.118Z,11.00
2018-12-01T21:55:23.535Z,12.00
2018-12-01T21:57:53.536Z,13.10
2018-12-01T22:00:25.541Z,15.10
2018-12-01T22:02:55.913Z,13.00
2018-12-01T22:05:27.642Z,12.33
2018-12-01T22:07:56.112Z,10.50
2018-12-01T22:10:24.560Z,17.90
2018-12-01T22:12:53.094Z,13.20
2018-12-01T22:15:21.715Z,12.00
2018-12-01T22:17:50.277Z,10.73
2018-12-01T22:20:22.674Z,9.27
2018-12-01T22:22:52.032Z,14.70
2018-12-01T22:25:20.633Z,13.77
2018-12-01T22:27:49.686Z,10.67
2018-12-01T22:30:20.559Z,13.77
2018-12-01T22:32:54.420Z,18.07
2018-12-01T22:35:24.077Z,11.53
2018-12-01T22:37:53.509Z,11.27
2018-12-01T22:40:23.309Z,18.47
2018-12-01T22:42:54.293Z,13.40
2018-12-01T22:45:22.858Z,10.00
2018-12-01T22:47:51.435Z,15.10
2018-12-01T22:50:20.842Z,15.93
2018-12-01T22:52:49.931Z,13.70
2018-12-01T22:55:22.600Z,13.47
2018-12-01T22:57:53.497Z,12.47
2018-12-01T23:00:24.725Z,11.40
2018-12-01T23:02:53.197Z,12.73
2018-12-01T23:05:21.652Z,12.00
2018-12-01T23:07:50.085Z,8.77
2018-12-01T23:10:18.643Z,11.60
2018-12-01T23:12:47.541Z,13.70
2018-12-01T23:15:17.825Z,11.87
2018-12-01T23:17:47.687Z,11.87
2018-12-01T23:20:18.727Z,13.70
2018-12-01T23:22:47.640Z,14.33
2018-12-01T23:25:16.202Z,14.53
2018-12-01T23:27:44.647Z,15.57
2018-12-01T23:30:28.965Z,13.72
2018-12-01T23:33:02.777Z,12.70
2018-12-01T23:35:32.474Z,12.80
2018-12-01T23:38:01.039Z,14.13
2018-12-01T23:40:29.629Z,17.30
2018-12-01T23:42:58.238Z,13.07
2018-12-01T23:45:26.744Z,17.90
2018-12-01T23:47:55.290Z,17.23
2018-12-01T23:50:24.875Z,15.87
2018-12-01T23:52:54.637Z,14.13
2018-12-01T23:55:23.298Z,14.53
2018-12-01T23:57:51.747Z,16.87
